createdAt,value
2022-10-02T00:00:31.395Z,2.58
2022-10-02T00:03:06.285Z,2.17
2022-10-02T00:05:37.523Z,2.25
2022-10-02T00:08:12.268Z,2.40
2022-10-02T00:10:38.480Z,2.00
2022-10-02T00:13:06.444Z,2.10
2022-10-02T00:15:34.400Z,2.22
2022-10-02T00:18:07.466Z,2.25
2022-10-02T00:20:55.831Z,2.40
2022-10-02T00:23:33.072Z,2.08
2022-10-02T00:26:04.831Z,1.77
2022-10-02T00:28:40.148Z,2.15
2022-10-02T00:31:15.590Z,2.35
2022-10-02T00:33:51.982Z,2.17
2022-10-02T00:39:16.932Z,2.40
2022-10-02T00:41:55.674Z,2.13
2022-10-02T00:44:30.988Z,2.00
2022-10-02T00:47:16.125Z,1.50
2022-10-02T00:49:58.787Z,2.20
2022-10-02T00:52:28.068Z,2.80
2022-10-02T00:54:58.975Z,2.88
2022-10-02T00:57:31.206Z,1.70
2022-10-02T01:00:00.529Z,2.13
2022-10-02T01:02:26.848Z,2.33
2022-10-02T01:04:54.372Z,3.33
2022-10-02T01:07:20.732Z,2.10
2022-10-02T01:09:47.032Z,1.88
2022-10-02T01:12:14.775Z,2.13
2022-10-02T01:14:41.084Z,2.55
2022-10-02T01:17:19.144Z,3.05
2022-10-02T01:19:45.679Z,2.67
2022-10-02T01:22:15.869Z,2.25
2022-10-02T01:24:49.109Z,2.08
2022-10-02T01:27:15.595Z,3.50
2022-10-02T01:29:43.342Z,3.03
2022-10-02T01:32:09.889Z,3.00
2022-10-02T01:34:37.030Z,3.03
2022-10-02T01:37:03.342Z,2.13
2022-10-02T01:39:30.331Z,2.40
2022-10-02T01:41:56.777Z,2.40
2022-10-02T01:44:23.500Z,1.98
2022-10-02T01:47:10.343Z,2.42
2022-10-02T01:52:11.860Z,2.70
2022-10-02T01:55:07.565Z,2.33
2022-10-02T01:57:45.856Z,2.05
2022-10-02T02:00:17.283Z,2.42
2022-10-02T02:03:01.772Z,2.25
2022-10-02T02:05:36.857Z,3.38
2022-10-02T02:08:06.927Z,2.67
2022-10-02T02:10:45.856Z,1.83
2022-10-02T02:13:24.837Z,2.13
2022-10-02T02:15:54.372Z,2.03
2022-10-02T02:18:27.632Z,2.10
2022-10-02T02:20:55.855Z,2.08
2022-10-02T02:23:25.615Z,2.75
2022-10-02T02:25:54.213Z,2.33
2022-10-02T02:28:21.639Z,2.67
2022-10-02T02:30:49.814Z,1.70
2022-10-02T02:33:31.932Z,2.22
2022-10-02T02:36:00.459Z,2.72
2022-10-02T02:38:28.934Z,2.13
2022-10-02T02:40:57.692Z,2.58
2022-10-02T02:43:27.213Z,2.28
2022-10-02T02:45:57.819Z,2.65
2022-10-02T02:48:29.596Z,3.30
2022-10-02T02:51:10.105Z,2.58
2022-10-02T02:53:49.202Z,2.42
2022-10-02T02:56:16.940Z,3.00
2022-10-02T02:58:58.799Z,2.08
2022-10-02T03:01:25.135Z,2.17
2022-10-02T03:03:51.407Z,2.30
2022-10-02T03:06:21.678Z,1.88
2022-10-02T03:08:50.258Z,1.73
2022-10-02T03:11:31.773Z,1.80
2022-10-02T03:14:07.744Z,1.42
2022-10-02T03:16:34.297Z,2.33
2022-10-02T03:19:00.628Z,1.58
2022-10-02T03:21:30.385Z,1.77
2022-10-02T03:24:15.648Z,1.80
2022-10-02T03:26:50.296Z,1.67
2022-10-02T03:29:30.166Z,2.00
2022-10-02T03:31:56.908Z,2.08
2022-10-02T03:34:23.698Z,1.60
2022-10-02T03:36:50.152Z,2.00
2022-10-02T03:39:25.688Z,2.00
2022-10-02T03:41:53.216Z,2.03
2022-10-02T03:44:19.488Z,2.00
2022-10-02T03:46:45.773Z,2.63
2022-10-02T03:49:12.059Z,2.05
2022-10-02T03:51:38.276Z,1.92
2022-10-02T03:54:06.737Z,1.80
2022-10-02T03:56:39.269Z,2.30
2022-10-02T03:59:10.043Z,1.95
2022-10-02T04:01:39.440Z,2.15
2022-10-02T04:04:08.738Z,2.03
2022-10-02T04:06:35.217Z,1.90
2022-10-02T04:09:09.773Z,1.67
2022-10-02T04:11:39.023Z,1.90
2022-10-02T04:14:13.997Z,2.20
2022-10-02T04:16:49.461Z,2.17
2022-10-02T04:19:22.469Z,1.97
2022-10-02T04:22:05.773Z,2.40
2022-10-02T04:24:39.686Z,2.00
2022-10-02T04:27:15.296Z,2.40
2022-10-02T04:29:44.993Z,2.45
2022-10-02T04:32:15.277Z,2.22
2022-10-02T04:34:41.562Z,1.65
2022-10-02T04:37:10.885Z,1.63
2022-10-02T04:39:37.092Z,2.83
2022-10-02T04:42:09.644Z,1.50
2022-10-02T04:44:51.189Z,1.50
2022-10-02T04:47:23.586Z,1.70
2022-10-02T04:49:56.058Z,2.13
2022-10-02T04:52:47.624Z,1.90
2022-10-02T04:55:16.615Z,1.58
2022-10-02T04:57:49.006Z,1.80
2022-10-02T05:00:17.946Z,2.00
2022-10-02T05:02:56.402Z,1.83
2022-10-02T05:05:36.426Z,2.30
2022-10-02T05:08:09.949Z,1.60
2022-10-02T05:10:42.740Z,2.33
2022-10-02T05:13:16.977Z,1.50
2022-10-02T05:15:46.331Z,2.03
2022-10-02T05:18:31.424Z,1.90
2022-10-02T05:20:57.638Z,1.75
2022-10-02T05:23:26.955Z,1.95
2022-10-02T05:25:56.181Z,1.27
2022-10-02T05:28:40.908Z,1.90
2022-10-02T05:31:13.705Z,1.73
2022-10-02T05:33:42.637Z,1.60
2022-10-02T05:36:10.940Z,1.45
2022-10-02T05:38:55.760Z,1.80
2022-10-02T05:41:40.519Z,1.40
2022-10-02T05:44:11.247Z,1.70
2022-10-02T05:46:44.636Z,1.85
2022-10-02T05:49:17.053Z,1.58
2022-10-02T05:51:51.758Z,1.25
2022-10-02T05:54:41.470Z,1.70
2022-10-02T05:57:22.662Z,1.65
2022-10-02T06:00:07.765Z,2.15
2022-10-02T06:02:43.241Z,1.70
2022-10-02T06:05:32.870Z,1.60
2022-10-02T06:08:02.556Z,1.92
2022-10-02T06:10:34.321Z,1.40
2022-10-02T06:13:08.807Z,1.50
2022-10-02T06:15:44.307Z,2.03
2022-10-02T06:18:14.338Z,1.77
2022-10-02T06:20:43.080Z,1.65
2022-10-02T06:23:26.295Z,1.30
2022-10-02T06:25:55.080Z,1.50
2022-10-02T06:28:25.598Z,1.95
2022-10-02T06:30:59.373Z,1.88
2022-10-02T06:33:26.396Z,1.70
2022-10-02T06:35:52.700Z,1.50
2022-10-02T06:38:22.335Z,1.88
2022-10-02T06:40:50.658Z,1.80
2022-10-02T06:43:32.029Z,1.77
2022-10-02T06:46:00.798Z,1.38
2022-10-02T06:48:33.109Z,1.50
2022-10-02T06:51:11.465Z,1.60
2022-10-02T06:53:40.796Z,2.10
2022-10-02T06:56:25.553Z,1.73
2022-10-02T06:58:58.544Z,1.88
2022-10-02T07:01:41.205Z,1.42
2022-10-02T07:04:27.744Z,1.38
2022-10-02T07:06:53.986Z,1.48
2022-10-02T07:09:39.117Z,1.60
2022-10-02T07:12:12.871Z,1.73
2022-10-02T07:14:51.074Z,1.20
2022-10-02T07:17:22.976Z,1.50
2022-10-02T07:19:49.200Z,1.27
2022-10-02T07:22:44.025Z,1.45
2022-10-02T07:25:30.490Z,1.90
2022-10-02T07:28:10.685Z,1.40
2022-10-02T07:30:45.133Z,1.25
2022-10-02T07:33:30.361Z,2.10
2022-10-02T07:36:13.880Z,1.40
2022-10-02T07:39:00.385Z,1.50
2022-10-02T07:41:50.358Z,1.50
2022-10-02T07:44:35.399Z,1.52
2022-10-02T07:47:12.676Z,1.50
2022-10-02T07:49:56.552Z,1.48
2022-10-02T07:52:25.860Z,1.48
2022-10-02T07:54:55.097Z,1.30
2022-10-02T07:57:39.956Z,1.50
2022-10-02T08:00:11.233Z,1.20
2022-10-02T08:02:52.475Z,1.60
2022-10-02T08:05:33.252Z,1.10
2022-10-02T08:08:04.356Z,1.27
2022-10-02T08:10:37.731Z,1.55
2022-10-02T08:13:14.654Z,1.58
2022-10-02T08:15:42.175Z,1.38
2022-10-02T08:18:33.254Z,1.25
2022-10-02T08:20:59.843Z,1.40
2022-10-02T08:23:33.993Z,1.67
2022-10-02T08:26:03.095Z,1.42
2022-10-02T08:28:31.847Z,1.50
2022-10-02T08:30:58.186Z,1.63
2022-10-02T08:33:24.426Z,1.23
2022-10-02T08:36:09.756Z,1.23
2022-10-02T08:38:46.547Z,1.08
2022-10-02T08:41:13.035Z,1.10
2022-10-02T08:43:54.058Z,1.30
2022-10-02T08:46:48.661Z,1.20
2022-10-02T08:49:39.108Z,0.90
2022-10-02T08:52:09.671Z,0.80
2022-10-02T08:54:36.716Z,1.38
2022-10-02T08:57:21.622Z,1.50
2022-10-02T09:00:09.312Z,1.00
2022-10-02T09:02:35.624Z,1.33
2022-10-02T09:05:12.714Z,1.30
2022-10-02T09:07:39.470Z,1.50
2022-10-02T09:10:17.568Z,1.48
2022-10-02T09:12:58.289Z,1.27
2022-10-02T09:15:39.431Z,0.90
2022-10-02T09:18:08.755Z,1.10
2022-10-02T09:20:53.824Z,1.50
2022-10-02T09:23:20.048Z,1.55
2022-10-02T09:25:55.483Z,1.40
2022-10-02T09:28:24.743Z,1.45
2022-10-02T09:31:03.734Z,1.50
2022-10-02T09:33:48.780Z,1.40
2022-10-02T09:36:24.851Z,1.48
2022-10-02T09:41:44.284Z,1.17
2022-10-02T09:44:13.352Z,1.63
2022-10-02T09:46:59.891Z,1.88
2022-10-02T09:52:04.460Z,1.40
2022-10-02T09:54:40.107Z,1.60
2022-10-02T09:57:15.720Z,1.30
2022-10-02T09:59:58.678Z,1.80
2022-10-02T10:02:32.877Z,1.80
2022-10-02T10:05:06.901Z,1.35
2022-10-02T10:07:45.632Z,1.55
2022-10-02T10:10:19.623Z,1.75
2022-10-02T10:12:49.327Z,2.30
2022-10-02T10:15:23.899Z,1.70
2022-10-02T10:18:13.968Z,2.15
2022-10-02T10:20:58.621Z,2.50
2022-10-02T10:23:37.024Z,2.30
2022-10-02T10:26:03.231Z,2.65
2022-10-02T10:28:47.564Z,2.55
2022-10-02T10:31:20.083Z,2.97
2022-10-02T10:34:05.191Z,3.35
2022-10-02T10:37:08.368Z,2.90
2022-10-02T10:40:08.462Z,2.88
2022-10-02T10:43:07.355Z,3.78
2022-10-02T10:45:54.051Z,2.72
2022-10-02T10:48:32.375Z,2.80
2022-10-02T10:51:16.886Z,2.63
2022-10-02T10:53:43.176Z,2.45
2022-10-02T10:56:29.948Z,2.95
2022-10-02T10:59:15.614Z,2.85
2022-10-02T11:02:06.576Z,2.70
2022-10-02T11:04:53.165Z,2.70
2022-10-02T11:07:35.022Z,2.63
2022-10-02T11:10:20.291Z,2.75
2022-10-02T11:12:55.140Z,2.53
2022-10-02T11:15:31.722Z,2.92
2022-10-02T11:17:57.919Z,2.85
2022-10-02T11:20:34.792Z,2.30
2022-10-02T11:23:19.094Z,2.92
2022-10-02T11:25:54.245Z,2.72
2022-10-02T11:28:42.294Z,2.60
2022-10-02T11:31:11.545Z,3.13
2022-10-02T11:33:57.525Z,2.72
2022-10-02T11:36:49.852Z,3.10
2022-10-02T11:39:38.896Z,2.85
2022-10-02T11:42:33.595Z,3.40
2022-10-02T11:45:05.912Z,2.72
2022-10-02T11:47:32.142Z,2.95
2022-10-02T11:50:17.309Z,3.60
2022-10-02T11:52:55.989Z,2.70
2022-10-02T11:55:30.610Z,3.28
2022-10-02T11:57:56.817Z,3.25
2022-10-02T12:00:41.487Z,2.85
2022-10-02T12:03:19.748Z,3.60
2022-10-02T12:05:55.194Z,4.07
2022-10-02T12:08:24.605Z,4.03
2022-10-02T12:10:53.967Z,4.15
2022-10-02T12:13:42.378Z,3.20
2022-10-02T12:16:27.530Z,3.92
2022-10-02T12:19:12.749Z,3.67
2022-10-02T12:22:00.944Z,3.95
2022-10-02T12:25:21.391Z,3.58
2022-10-02T12:28:00.162Z,3.75
2022-10-02T12:30:31.793Z,3.78
2022-10-02T12:33:01.596Z,4.03
2022-10-02T12:35:34.036Z,3.50
2022-10-02T12:38:03.408Z,3.28
2022-10-02T12:40:44.948Z,3.00
2022-10-02T12:43:27.580Z,3.25
2022-10-02T12:46:03.155Z,3.92
2022-10-02T12:48:49.201Z,4.13
2022-10-02T12:51:16.225Z,3.15
2022-10-02T12:53:51.464Z,3.17
2022-10-02T12:56:27.005Z,3.63
2022-10-02T12:59:09.228Z,2.80
2022-10-02T13:01:48.119Z,3.88
2022-10-02T13:04:39.855Z,3.70
2022-10-02T13:07:26.233Z,3.08
2022-10-02T13:09:55.872Z,3.22
2022-10-02T13:12:25.084Z,2.90
2022-10-02T13:15:09.989Z,2.85
2022-10-02T13:17:38.988Z,3.22
2022-10-02T13:20:24.721Z,2.97
2022-10-02T13:23:00.259Z,2.87
2022-10-02T13:25:47.993Z,3.63
2022-10-02T13:28:22.539Z,3.35
2022-10-02T13:30:57.235Z,2.60
2022-10-02T13:33:46.244Z,3.47
2022-10-02T13:36:26.071Z,2.92
2022-10-02T13:39:15.194Z,3.60
2022-10-02T13:41:50.491Z,2.40
2022-10-02T13:44:21.002Z,2.93
2022-10-02T13:47:02.239Z,3.03
2022-10-02T13:49:31.580Z,3.28
2022-10-02T13:52:18.143Z,3.75
2022-10-02T13:54:57.617Z,3.95
2022-10-02T13:57:42.697Z,3.63
2022-10-02T14:00:41.516Z,3.97
2022-10-02T14:03:20.081Z,3.15
2022-10-02T14:06:02.825Z,2.50
2022-10-02T14:08:29.080Z,3.45
2022-10-02T14:11:04.520Z,3.97
2022-10-02T14:13:31.290Z,3.70
2022-10-02T14:15:57.531Z,3.25
2022-10-02T14:18:36.576Z,2.60
2022-10-02T14:21:02.804Z,3.58
2022-10-02T14:23:35.315Z,3.47
2022-10-02T14:26:01.656Z,4.00
2022-10-02T14:28:30.981Z,4.88
2022-10-02T14:31:09.711Z,3.65
2022-10-02T14:33:43.437Z,2.55
2022-10-02T14:36:18.125Z,3.80
2022-10-02T14:38:53.503Z,4.68
2022-10-02T14:41:19.800Z,4.47
2022-10-02T14:43:46.027Z,2.90
2022-10-02T14:46:14.019Z,2.92
2022-10-02T14:48:50.221Z,5.05
2022-10-02T14:53:47.559Z,3.78
2022-10-02T14:56:53.132Z,3.20
2022-10-02T14:59:37.972Z,3.75
2022-10-02T15:02:10.631Z,3.53
2022-10-02T15:05:04.076Z,3.40
2022-10-02T15:07:32.947Z,3.70
2022-10-02T15:10:15.769Z,3.10
2022-10-02T15:12:47.942Z,4.03
2022-10-02T15:15:14.287Z,3.50
2022-10-02T15:17:55.995Z,3.10
2022-10-02T15:20:34.559Z,3.00
2022-10-02T15:23:00.901Z,2.60
2022-10-02T15:25:27.326Z,2.60
2022-10-02T15:28:24.256Z,2.80
2022-10-02T15:30:56.760Z,2.90
2022-10-02T15:33:31.338Z,2.28
2022-10-02T15:36:06.952Z,2.88
2022-10-02T15:39:05.817Z,3.40
2022-10-02T15:41:40.223Z,2.50
2022-10-02T15:44:06.780Z,2.50
2022-10-02T15:46:56.098Z,2.75
2022-10-02T15:49:32.934Z,2.58
2022-10-02T15:52:00.559Z,2.65
2022-10-02T15:54:44.878Z,3.50
2022-10-02T15:57:18.344Z,2.67
2022-10-02T15:59:50.730Z,2.80
2022-10-02T16:02:35.017Z,2.50
2022-10-02T16:05:10.745Z,2.75
2022-10-02T16:07:55.699Z,2.92
2022-10-02T16:10:24.672Z,2.60
2022-10-02T16:12:56.872Z,2.58
2022-10-02T16:15:23.555Z,2.05
2022-10-02T16:18:02.333Z,2.53
2022-10-02T16:20:47.936Z,2.33
2022-10-02T16:23:32.624Z,2.50
2022-10-02T16:26:18.013Z,3.15
2022-10-02T16:28:44.375Z,2.63
2022-10-02T16:31:40.217Z,2.20
2022-10-02T16:34:09.243Z,3.03
2022-10-02T16:36:35.829Z,2.60
2022-10-02T16:39:21.018Z,1.98
2022-10-02T16:41:58.723Z,2.40
2022-10-02T16:44:39.585Z,2.25
2022-10-02T16:47:15.393Z,3.17
2022-10-02T16:49:53.970Z,2.10
2022-10-02T16:52:32.116Z,2.13
2022-10-02T16:55:08.508Z,2.38
2022-10-02T16:57:34.716Z,1.75
2022-10-02T17:00:10.644Z,2.03
2022-10-02T17:02:36.950Z,2.28
2022-10-02T17:05:21.873Z,2.20
2022-10-02T17:08:07.513Z,1.75
2022-10-02T17:10:53.155Z,1.80
2022-10-02T17:13:33.309Z,1.85
2022-10-02T17:16:08.963Z,2.15
2022-10-02T17:18:42.255Z,2.10
2022-10-02T17:21:21.419Z,2.05
2022-10-02T17:23:52.358Z,2.17
2022-10-02T17:26:27.000Z,2.08
2022-10-02T17:28:57.292Z,2.20
2022-10-02T17:31:46.297Z,1.80
2022-10-02T17:34:12.767Z,2.60
2022-10-02T17:36:49.263Z,2.03
2022-10-02T17:39:15.450Z,1.88
2022-10-02T17:42:00.805Z,2.13
2022-10-02T17:44:44.422Z,2.08
2022-10-02T17:47:14.564Z,1.85
2022-10-02T17:49:59.676Z,1.98
2022-10-02T17:52:44.756Z,2.08
2022-10-02T17:55:32.619Z,2.83
2022-10-02T17:58:01.991Z,2.28
2022-10-02T18:00:31.771Z,2.10
2022-10-02T18:03:07.355Z,1.92
2022-10-02T18:05:36.356Z,2.05
2022-10-02T18:08:07.063Z,2.35
2022-10-02T18:10:39.415Z,2.30
2022-10-02T18:13:10.386Z,3.08
2022-10-02T18:15:36.918Z,2.20
2022-10-02T18:18:18.123Z,2.40
2022-10-02T18:20:52.518Z,2.88
2022-10-02T18:23:37.670Z,2.60
2022-10-02T18:26:23.714Z,2.20
2022-10-02T18:29:01.756Z,2.50
2022-10-02T18:31:55.165Z,2.58
2022-10-02T18:34:21.842Z,2.67
2022-10-02T18:36:50.600Z,2.17
2022-10-02T18:39:23.395Z,1.90
2022-10-02T18:41:52.489Z,1.98
2022-10-02T18:44:38.037Z,2.75
2022-10-02T18:47:07.653Z,2.00
2022-10-02T18:49:59.080Z,2.13
2022-10-02T18:52:34.279Z,1.90
2022-10-02T18:55:19.416Z,2.10
2022-10-02T18:57:45.692Z,2.33
2022-10-02T19:00:21.404Z,2.10
2022-10-02T19:02:47.632Z,2.13
2022-10-02T19:05:25.658Z,2.65
2022-10-02T19:08:04.248Z,2.05
2022-10-02T19:10:30.497Z,2.10
2022-10-02T19:13:00.752Z,2.20
2022-10-02T19:15:29.345Z,2.40
2022-10-02T19:17:59.572Z,2.10
2022-10-02T19:20:44.388Z,2.20
2022-10-02T19:23:17.353Z,2.05
2022-10-02T19:25:46.077Z,3.40
2022-10-02T19:28:15.631Z,2.95
2022-10-02T19:30:46.236Z,2.47
2022-10-02T19:33:17.621Z,2.20
2022-10-02T19:35:44.210Z,2.30
2022-10-02T19:38:26.148Z,1.92
2022-10-02T19:40:53.376Z,2.60
2022-10-02T19:43:28.250Z,2.20
2022-10-02T19:45:57.176Z,2.42
2022-10-02T19:48:25.544Z,2.00
2022-10-02T19:51:03.080Z,2.10
2022-10-02T19:53:34.933Z,2.20
2022-10-02T19:56:03.928Z,2.55
2022-10-02T19:58:37.306Z,2.72
2022-10-02T20:01:04.874Z,2.25
2022-10-02T20:03:32.128Z,2.28
2022-10-02T20:06:07.265Z,2.17
2022-10-02T20:08:36.669Z,2.00
2022-10-02T20:11:10.921Z,2.08
2022-10-02T20:13:46.970Z,2.25
2022-10-02T20:16:35.623Z,1.88
2022-10-02T20:19:03.515Z,1.80
2022-10-02T20:21:56.182Z,1.90
2022-10-02T20:24:22.422Z,1.80
2022-10-02T20:26:50.319Z,1.90
2022-10-02T20:29:20.728Z,1.98
2022-10-02T20:31:53.667Z,2.47
2022-10-02T20:34:35.335Z,2.30
2022-10-02T20:37:05.984Z,2.38
2022-10-02T20:39:37.185Z,2.53
2022-10-02T20:42:09.421Z,2.15
2022-10-02T20:44:36.457Z,2.13
2022-10-02T20:47:20.727Z,2.58
2022-10-02T20:49:59.474Z,2.50
2022-10-02T20:52:26.088Z,1.88
2022-10-02T20:54:59.453Z,2.13
2022-10-02T20:57:59.733Z,1.88
2022-10-02T21:00:28.784Z,1.52
2022-10-02T21:03:17.533Z,1.67
2022-10-02T21:05:49.529Z,2.03
2022-10-02T21:08:28.041Z,1.80
2022-10-02T21:11:06.432Z,2.05
2022-10-02T21:13:47.499Z,1.80
2022-10-02T21:16:32.426Z,1.83
2022-10-02T21:19:05.355Z,2.20
2022-10-02T21:21:43.545Z,1.60
2022-10-02T21:24:30.346Z,2.03
2022-10-02T21:27:16.415Z,1.70
2022-10-02T21:29:43.408Z,2.17
2022-10-02T21:32:28.890Z,2.78
2022-10-02T21:35:08.816Z,2.40
2022-10-02T21:37:55.821Z,1.80
2022-10-02T21:43:05.330Z,1.70
2022-10-02T21:45:50.794Z,1.63
2022-10-02T21:48:24.275Z,1.73
2022-10-02T21:51:01.788Z,2.20
2022-10-02T21:53:42.144Z,1.65
2022-10-02T21:56:26.897Z,2.20
2022-10-02T21:59:11.936Z,1.95
2022-10-02T22:02:07.211Z,1.65
2022-10-02T22:04:51.804Z,1.98
2022-10-02T22:07:34.502Z,1.58
2022-10-02T22:10:21.346Z,2.08
2022-10-02T22:12:56.365Z,2.65
2022-10-02T22:15:25.950Z,1.77
2022-10-02T22:18:01.116Z,1.90
2022-10-02T22:20:30.365Z,2.08
2022-10-02T22:22:56.653Z,1.85
2022-10-02T22:25:41.608Z,2.15
2022-10-02T22:28:18.487Z,2.00
2022-10-02T22:31:08.277Z,1.80
2022-10-02T22:33:41.538Z,1.88
2022-10-02T22:36:31.958Z,1.95
2022-10-02T22:39:17.558Z,2.22
2022-10-02T22:41:50.741Z,2.20
2022-10-02T22:44:16.935Z,1.80
2022-10-02T22:46:52.087Z,1.77
2022-10-02T22:49:18.312Z,1.65
2022-10-02T22:51:49.335Z,1.83
2022-10-02T22:54:21.923Z,2.03
2022-10-02T22:56:57.982Z,1.88
2022-10-02T22:59:44.077Z,1.85
2022-10-02T23:02:16.326Z,1.83
2022-10-02T23:04:52.595Z,2.03
2022-10-02T23:07:29.579Z,1.80
2022-10-02T23:10:05.846Z,1.88
2022-10-02T23:12:40.932Z,1.95
2022-10-02T23:15:25.929Z,2.13
2022-10-02T23:17:58.991Z,1.80
2022-10-02T23:20:45.483Z,1.73
2022-10-02T23:23:19.314Z,2.00
2022-10-02T23:26:08.952Z,1.85
2022-10-02T23:28:44.491Z,1.88
2022-10-02T23:31:13.950Z,1.83
2022-10-02T23:34:00.739Z,1.67
2022-10-02T23:36:34.339Z,1.70
2022-10-02T23:39:16.106Z,2.10
2022-10-02T23:41:48.767Z,2.03
2022-10-02T23:44:21.303Z,1.90
2022-10-02T23:46:50.634Z,1.90
2022-10-02T23:49:18.275Z,1.73
2022-10-02T23:52:04.562Z,2.17
2022-10-02T23:54:30.779Z,1.95
2022-10-02T23:57:23.256Z,2.03
